createdAt,value
2023-03-08T00:01:16.198Z,2.78
2023-03-08T00:06:17.869Z,2.13
2023-03-08T00:11:19.795Z,2.38
2023-03-08T00:16:21.948Z,2.08
2023-03-08T00:21:23.698Z,2.08
2023-03-08T00:26:25.402Z,2.30
2023-03-08T00:31:27.163Z,2.17
2023-03-08T00:36:28.963Z,2.70
2023-03-08T00:41:30.683Z,2.65
2023-03-08T00:46:32.540Z,3.00
2023-03-08T00:51:34.312Z,3.08
2023-03-08T00:56:36.057Z,3.40
2023-03-08T01:01:37.724Z,3.30
2023-03-08T01:06:40.102Z,3.45
2023-03-08T01:11:43.284Z,3.33
2023-03-08T01:16:45.010Z,3.90
2023-03-08T01:21:46.717Z,5.28
2023-03-08T01:26:48.406Z,5.10
2023-03-08T01:31:50.099Z,5.35
2023-03-08T01:36:51.829Z,6.05
2023-03-08T01:41:53.525Z,5.80
2023-03-08T01:46:55.177Z,6.35
2023-03-08T01:52:13.647Z,5.85
2023-03-08T01:57:23.675Z,5.72
2023-03-08T02:02:31.346Z,5.72
2023-03-08T02:07:33.008Z,5.40
2023-03-08T02:12:35.920Z,5.15
2023-03-08T02:17:39.696Z,5.47
2023-03-08T02:22:43.225Z,5.43
2023-03-08T02:27:45.341Z,5.43
2023-03-08T02:32:47.057Z,6.57
2023-03-08T02:37:48.835Z,6.38
2023-03-08T02:42:53.200Z,5.65
2023-03-08T02:47:55.107Z,5.70
2023-03-08T02:52:57.049Z,5.55
2023-03-08T02:57:58.828Z,5.15
2023-03-08T03:03:00.574Z,4.32
2023-03-08T03:08:02.342Z,4.85
2023-03-08T03:13:05.098Z,4.38
2023-03-08T03:18:06.947Z,4.72
2023-03-08T03:23:08.875Z,4.60
2023-03-08T03:28:10.578Z,4.60
2023-03-08T03:33:12.253Z,4.40
2023-03-08T03:38:13.997Z,4.28
2023-03-08T03:43:15.745Z,3.60
2023-03-08T03:48:17.400Z,4.07
2023-03-08T03:53:19.126Z,3.90
2023-03-08T03:58:21.032Z,4.40
2023-03-08T04:03:22.899Z,4.60
2023-03-08T04:08:24.696Z,3.95
2023-03-08T04:13:26.470Z,4.25
2023-03-08T04:18:28.241Z,5.03
2023-03-08T04:23:30.317Z,4.40
2023-03-08T04:28:33.782Z,4.95
2023-03-08T04:33:35.526Z,5.40
2023-03-08T04:38:37.340Z,4.10
2023-03-08T04:43:41.149Z,3.85
2023-03-08T04:48:42.902Z,3.45
2023-03-08T04:53:45.489Z,3.65
2023-03-08T04:58:47.757Z,3.30
2023-03-08T05:03:50.154Z,3.38
2023-03-08T05:08:52.524Z,3.42
2023-03-08T05:13:55.585Z,4.40
2023-03-08T05:18:57.285Z,4.35
2023-03-08T05:24:00.426Z,4.35
2023-03-08T05:29:03.725Z,4.07
2023-03-08T05:34:05.457Z,6.13
2023-03-08T05:39:07.246Z,4.63
2023-03-08T05:44:09.034Z,5.38
2023-03-08T05:49:10.744Z,4.78
2023-03-08T05:54:12.541Z,5.40
2023-03-08T05:59:14.313Z,5.43
2023-03-08T06:04:16.046Z,5.13
2023-03-08T06:09:19.080Z,5.13
2023-03-08T06:14:20.975Z,5.10
2023-03-08T06:19:22.860Z,5.05
2023-03-08T06:24:24.566Z,5.22
2023-03-08T06:29:26.440Z,6.15
2023-03-08T06:34:28.194Z,5.80
2023-03-08T06:39:31.654Z,5.90
2023-03-08T06:44:33.931Z,6.10
2023-03-08T06:49:35.771Z,6.03
2023-03-08T06:54:37.502Z,6.47
2023-03-08T06:59:39.302Z,6.70
2023-03-08T07:04:41.029Z,6.53
2023-03-08T07:09:42.787Z,6.78
2023-03-08T07:14:44.493Z,6.65
2023-03-08T07:19:46.199Z,7.75
2023-03-08T07:24:49.704Z,6.93
2023-03-08T07:29:52.045Z,6.05
2023-03-08T07:34:53.735Z,5.60
2023-03-08T07:39:55.449Z,7.60
2023-03-08T07:44:57.190Z,5.95
2023-03-08T07:49:59.526Z,11.57
2023-03-08T07:55:02.721Z,5.95
2023-03-08T08:00:08.952Z,5.80
2023-03-08T08:05:10.830Z,5.60
2023-03-08T08:10:12.636Z,5.00
2023-03-08T08:15:14.396Z,4.30
2023-03-08T08:20:16.353Z,5.40
2023-03-08T08:25:18.111Z,3.90
2023-03-08T08:30:20.401Z,5.13
2023-03-08T08:35:25.477Z,5.35
2023-03-08T08:40:37.143Z,5.90
2023-03-08T08:45:44.517Z,5.80
2023-03-08T08:50:46.889Z,4.78
2023-03-08T08:55:48.626Z,5.82
2023-03-08T09:01:14.602Z,6.00
2023-03-08T09:06:20.344Z,5.45
2023-03-08T09:11:23.409Z,5.35
2023-03-08T09:16:30.663Z,6.03
2023-03-08T09:21:33.284Z,8.70
2023-03-08T09:26:35.062Z,7.40
2023-03-08T09:31:39.443Z,6.13
2023-03-08T09:36:41.924Z,5.38
2023-03-08T09:42:01.418Z,6.30
2023-03-08T09:47:13.647Z,5.78
2023-03-08T09:52:33.525Z,5.25
2023-03-08T09:57:45.842Z,6.10
2023-03-08T10:03:26.331Z,5.35
2023-03-08T10:08:45.312Z,6.80
2023-03-08T10:13:54.233Z,6.97
2023-03-08T10:19:05.729Z,6.40
2023-03-08T10:24:07.433Z,6.07
2023-03-08T10:29:12.522Z,5.07
2023-03-08T10:34:17.408Z,5.22
2023-03-08T10:39:20.977Z,5.32
2023-03-08T10:44:52.902Z,5.40
2023-03-08T10:50:18.085Z,6.40
2023-03-08T10:55:30.148Z,8.13
2023-03-08T11:00:41.140Z,5.47
2023-03-08T11:06:18.426Z,3.92
2023-03-08T11:11:20.348Z,2.97
2023-03-08T11:16:36.855Z,2.75
2023-03-08T11:21:44.602Z,2.90
2023-03-08T11:27:06.795Z,2.97
2023-03-08T11:32:58.243Z,3.85
2023-03-08T11:38:17.745Z,4.13
2023-03-08T11:43:45.191Z,3.63
2023-03-08T11:54:55.609Z,5.40
2023-03-08T12:00:13.087Z,5.90
2023-03-08T12:05:29.408Z,5.95
2023-03-08T12:10:50.554Z,6.93
2023-03-08T12:16:11.200Z,6.53
2023-03-08T12:22:03.447Z,6.18
2023-03-08T12:27:24.159Z,6.20
2023-03-08T12:32:26.984Z,6.75
2023-03-08T12:37:30.702Z,7.25
2023-03-08T12:42:40.660Z,6.05
2023-03-08T12:47:42.416Z,6.43
2023-03-08T12:52:52.960Z,6.45
2023-03-08T12:57:56.166Z,6.32
2023-03-08T13:03:13.276Z,6.65
2023-03-08T13:08:15.138Z,5.90
2023-03-08T13:13:40.307Z,7.75
2023-03-08T13:18:43.895Z,6.20
2023-03-08T13:24:17.261Z,6.05
2023-03-08T13:29:21.202Z,6.25
2023-03-08T13:34:31.736Z,6.32
2023-03-08T13:39:33.648Z,7.68
2023-03-08T13:44:35.680Z,7.25
2023-03-08T13:49:42.000Z,7.30
2023-03-08T13:54:48.635Z,6.68
2023-03-08T13:59:55.740Z,6.80
2023-03-08T14:04:58.745Z,6.75
2023-03-08T14:10:00.552Z,6.65
2023-03-08T14:15:04.654Z,7.60
2023-03-08T14:20:22.292Z,7.68
2023-03-08T14:25:32.612Z,7.63
2023-03-08T14:30:34.378Z,8.30
2023-03-08T14:35:39.693Z,7.78
2023-03-08T14:40:49.452Z,9.30
2023-03-08T14:46:04.728Z,7.82
2023-03-08T14:51:19.839Z,10.80
2023-03-08T14:56:21.595Z,8.73
2023-03-08T15:01:35.878Z,8.98
2023-03-08T15:06:40.227Z,9.15
2023-03-08T15:11:42.985Z,9.57
2023-03-08T15:16:44.780Z,9.43
2023-03-08T15:21:47.232Z,8.95
2023-03-08T15:26:48.960Z,9.18
2023-03-08T15:31:50.680Z,18.38
2023-03-08T15:36:53.492Z,8.95
2023-03-08T15:41:55.165Z,9.05
2023-03-08T15:46:56.964Z,8.50
2023-03-08T15:51:58.734Z,9.40
2023-03-08T15:57:00.535Z,9.18
2023-03-08T16:02:02.426Z,10.77
2023-03-08T16:07:04.731Z,9.05
2023-03-08T16:12:06.632Z,9.80
2023-03-08T16:17:09.103Z,9.30
2023-03-08T16:22:11.153Z,9.95
2023-03-08T16:27:13.015Z,8.75
2023-03-08T16:32:18.540Z,8.50
2023-03-08T16:37:21.077Z,9.32
2023-03-08T16:42:22.924Z,9.55
2023-03-08T16:47:26.612Z,9.85
2023-03-08T16:52:28.513Z,10.13
2023-03-08T16:57:30.234Z,10.52
2023-03-08T17:02:31.981Z,10.57
2023-03-08T17:07:33.835Z,11.15
2023-03-08T17:12:36.279Z,11.73
2023-03-08T17:17:41.405Z,11.30
2023-03-08T17:22:43.100Z,11.82
2023-03-08T17:27:44.823Z,11.65
2023-03-08T17:32:46.530Z,11.95
2023-03-08T17:37:50.038Z,12.35
2023-03-08T17:42:51.832Z,12.23
2023-03-08T17:48:00.507Z,12.52
2023-03-08T17:53:02.626Z,13.38
2023-03-08T17:58:04.290Z,12.35
2023-03-08T18:03:05.973Z,12.07
2023-03-08T18:08:07.686Z,12.30
2023-03-08T18:13:09.765Z,12.52
2023-03-08T18:18:11.455Z,12.70
2023-03-08T18:23:13.570Z,12.57
2023-03-08T18:28:16.617Z,12.77
2023-03-08T18:33:21.915Z,13.38
2023-03-08T18:38:24.692Z,13.07
2023-03-08T18:43:26.528Z,13.75
2023-03-08T18:48:28.239Z,14.70
2023-03-08T18:53:29.971Z,12.52
2023-03-08T18:58:32.053Z,14.25
2023-03-08T19:03:33.693Z,12.20
2023-03-08T19:08:35.714Z,12.05
2023-03-08T19:13:37.465Z,12.98
2023-03-08T19:18:39.150Z,12.40
2023-03-08T19:23:40.951Z,12.75
2023-03-08T19:28:42.636Z,11.95
2023-03-08T19:33:49.342Z,11.18
2023-03-08T19:38:51.151Z,10.93
2023-03-08T19:43:52.896Z,12.68
2023-03-08T19:48:55.031Z,11.52
2023-03-08T19:53:56.798Z,11.48
2023-03-08T19:58:59.432Z,11.25
2023-03-08T20:04:01.564Z,11.75
2023-03-08T20:09:05.159Z,11.55
2023-03-08T20:14:08.180Z,11.50
2023-03-08T20:19:10.101Z,11.52
2023-03-08T20:24:11.928Z,11.05
2023-03-08T20:29:13.972Z,11.43
2023-03-08T20:34:16.858Z,11.18
2023-03-08T20:39:18.580Z,10.27
2023-03-08T20:44:20.377Z,10.68
2023-03-08T20:49:22.126Z,10.40
2023-03-08T20:54:23.821Z,10.90
2023-03-08T20:59:28.582Z,10.10
2023-03-08T21:04:30.514Z,10.43
2023-03-08T21:09:33.191Z,10.13
2023-03-08T21:14:34.901Z,11.15
2023-03-08T21:19:37.106Z,9.80
2023-03-08T21:24:40.217Z,10.63
2023-03-08T21:29:42.131Z,9.95
2023-03-08T21:34:43.985Z,10.18
2023-03-08T21:39:46.158Z,9.00
2023-03-08T21:44:48.144Z,9.88
2023-03-08T21:49:50.278Z,8.70
2023-03-08T21:54:52.343Z,8.75
2023-03-08T21:59:55.638Z,8.43
2023-03-08T22:04:57.694Z,8.38
2023-03-08T22:09:59.515Z,7.55
2023-03-08T22:15:01.522Z,6.68
2023-03-08T22:20:05.489Z,7.47
2023-03-08T22:25:08.543Z,7.65
2023-03-08T22:30:11.778Z,7.10
2023-03-08T22:35:16.600Z,7.40
2023-03-08T22:40:19.539Z,7.57
2023-03-08T22:45:21.751Z,7.15
2023-03-08T22:50:23.759Z,6.80
2023-03-08T22:55:25.833Z,7.38
2023-03-08T23:00:28.129Z,7.38
2023-03-08T23:05:29.972Z,7.43
2023-03-08T23:10:34.414Z,8.48
2023-03-08T23:15:36.383Z,8.10
2023-03-08T23:20:39.502Z,8.38
2023-03-08T23:25:43.998Z,8.50
2023-03-08T23:30:45.770Z,8.52
2023-03-08T23:35:50.763Z,8.57
2023-03-08T23:40:52.589Z,9.57
2023-03-08T23:45:54.311Z,9.80
2023-03-08T23:50:56.058Z,10.05
2023-03-08T23:55:57.820Z,9.25
